Main page
METAR-TAF:

METAR-TAF

Airports :

Dubai, United Arab Emirates

Dubai International Airport

latitude: 25-15-10N, longitude: 055-21-52E, elevation: 8 m

Current weather observation

The report was made 33 minutes ago, at 16:00 UTC
Wind 7 kt from the Northwest
Temperature 26°C
Humidity 54%
Pressure 1018 hPa
Visibility 10 km or more
no clouds below 1500 m and no cumulonimbus

METAR: OMDB 241600Z 32007KT CAVOK 26/16 Q1018 NOSIG

Time: 20:33 (16:33 UTC)

Forecast

The report was made 5 hours and 39 minutes ago, at 10:54 UTC
Forecast valid from 24 at 12 UTC to 25 at 18 UTC
Wind 12 kt from the Northwest
Visibility 10 km or more
no clouds below 1500 m and no cumulonimbus
Probability 30%
from 25 at 00 UTC to 25 at 05 UTC
Wind 5 kt from the Southwest
Probability 30% :
Temporary
from 25 at 06 UTC to 25 at 12 UTC
Wind 15 kt from the West/Northwest with gusts up to 25 kt

TAF: OMDB 241054Z 2412/2518 32012KT CAVOK PROB30 2500/2505 23005KT PROB30 TEMPO 2506/2512 30015G25KT

Weather observations and forecasts of more than 4000 airports (METAR and TAF reports).

The available stations are represented by yellow and red dots on the map.

Hover mouse over dot to see the name of the station.

Then click to see weather observations and forecasts.

To change the map : click on the green buttons with a black cross to zoom in, on the green button with a dash to zoom out, or on the green arrows for adjacent maps.


METAR-TAF: